Time;durP1;ratioP1;P1;durP2;ratioP2;P2;SDS_P1;SDS_P2;PMS_P1;PMS_P2;Temp;Humidity;BMP_temperature;BMP_pressure;BME280_temperature;BME280_humidity;BME280_pressure;Samples;Min_cycle;Max_cycle;Signal;HPM_P1;HPM_P2
2022/12/16 00:00:06;;;;;;;54.58;41.92;;;-0.60;99.90;;;;;;4985284;28;20347;-66
2022/12/16 00:02:31;;;;;;;54.33;40.53;;;-0.60;99.90;;;;;;4983196;28;20674;-68
2022/12/16 00:04:57;;;;;;;53.45;39.97;;;0.20;99.90;;;;;;4979129;28;20178;-67
2022/12/16 00:07:23;;;;;;;57.33;40.80;;;-0.60;99.90;;;;;;4969558;28;20413;-67
2022/12/16 00:09:49;;;;;;;59.45;42.15;;;-0.50;99.90;;;;;;4964455;28;20886;-67
2022/12/16 00:12:14;;;;;;;58.90;41.08;;;-0.20;99.90;;;;;;4962407;28;20043;-68
2022/12/16 00:14:40;;;;;;;58.08;41.30;;;0.50;99.90;;;;;;4964603;28;20473;-67
2022/12/16 00:17:06;;;;;;;58.38;40.90;;;-0.50;99.90;;;;;;4964892;28;20030;-67
2022/12/16 00:19:32;;;;;;;56.13;41.47;;;0.00;99.90;;;;;;4964643;28;20058;-67
2022/12/16 00:21:57;;;;;;;58.83;40.67;;;-0.60;99.90;;;;;;4964598;28;20264;-67
2022/12/16 00:24:23;;;;;;;59.78;41.33;;;-0.60;99.90;;;;;;4964648;28;20394;-67
2022/12/16 00:26:50;;;;;;;61.60;40.17;;;-0.50;99.90;;;;;;4964590;28;20042;-67
2022/12/16 00:29:17;;;;;;;58.20;39.53;;;-0.80;99.90;;;;;;4965347;28;20055;-67
2022/12/16 00:31:46;;;;;;;52.97;39.28;;;-0.80;99.90;;;;;;4965433;28;20047;-67
2022/12/16 00:34:13;;;;;;;55.60;41.78;;;0.90;99.90;;;;;;4965516;28;20050;-66
2022/12/16 00:36:39;;;;;;;56.03;41.38;;;0.40;99.90;;;;;;4965313;28;20398;-68
2022/12/16 00:39:05;;;;;;;59.13;41.50;;;0.20;99.90;;;;;;4964723;28;20049;-65
2022/12/16 00:41:30;;;;;;;60.72;41.28;;;-0.90;99.90;;;;;;4965121;28;20066;-68
2022/12/16 00:43:56;;;;;;;60.17;41.03;;;-0.50;99.90;;;;;;4964939;28;20274;-67
2022/12/16 00:46:22;;;;;;;59.47;41.67;;;-0.60;99.90;;;;;;4965477;28;20042;-66
2022/12/16 00:48:47;;;;;;;56.78;38.42;;;-0.50;99.90;;;;;;4963885;28;20053;-65
2022/12/16 00:51:13;;;;;;;57.33;41.92;;;0.60;99.90;;;;;;4964937;28;20829;-67
2022/12/16 00:53:39;;;;;;;50.42;36.78;;;-0.40;99.90;;;;;;4965084;28;20410;-68
2022/12/16 00:56:10;;;;;;;56.35;40.00;;;-0.30;99.90;;;;;;4963973;28;20382;-66
2022/12/16 00:58:36;;;;;;;52.80;37.58;;;-0.60;99.90;;;;;;4964515;28;20545;-66
2022/12/16 01:01:03;;;;;;;53.75;40.10;;;0.50;99.90;;;;;;4965258;28;20134;-67
2022/12/16 01:03:29;;;;;;;55.60;39.78;;;-0.70;99.90;;;;;;4964738;28;20572;-67
2022/12/16 01:05:55;;;;;;;54.65;39.85;;;-0.60;99.90;;;;;;4975042;28;20047;-67
2022/12/16 01:08:21;;;;;;;53.58;40.10;;;-0.60;99.90;;;;;;4963747;28;20521;-67
2022/12/16 01:10:55;;;;;;;52.80;39.28;;;-0.10;99.90;;;;;;4963787;28;20497;-67
2022/12/16 01:13:21;;;;;;;54.95;40.25;;;-0.70;99.90;;;;;;4963626;28;20108;-66
2022/12/16 01:15:47;;;;;;;56.15;41.47;;;0.00;99.90;;;;;;4964543;28;20082;-67
2022/12/16 01:18:14;;;;;;;57.28;40.97;;;0.10;99.90;;;;;;4965118;28;20077;-66
2022/12/16 01:20:40;;;;;;;55.25;40.25;;;-0.70;99.90;;;;;;4963291;28;20142;-68
2022/12/16 01:23:06;;;;;;;57.72;40.75;;;0.50;99.90;;;;;;4963312;28;20134;-67
2022/12/16 01:25:32;;;;;;;52.50;37.72;;;0.30;99.90;;;;;;4964462;28;20051;-67
2022/12/16 01:27:58;;;;;;;50.40;38.40;;;-0.10;99.90;;;;;;4963630;28;20046;-68
2022/12/16 01:30:24;;;;;;;57.10;40.97;;;0.30;99.90;;;;;;4964687;28;20049;-65
2022/12/16 01:32:50;;;;;;;55.97;40.05;;;-0.60;99.90;;;;;;4963141;28;20050;-67
2022/12/16 01:35:16;;;;;;;54.63;39.85;;;-0.70;99.90;;;;;;4964550;28;20058;-66
2022/12/16 01:37:41;;;;;;;52.88;40.40;;;0.20;99.90;;;;;;4964216;28;20379;-67
2022/12/16 01:40:12;;;;;;;56.65;40.33;;;-0.10;99.90;;;;;;4964932;28;20043;-66
2022/12/16 01:42:38;;;;;;;56.53;40.55;;;-0.50;99.90;;;;;;4964432;28;20449;-66
2022/12/16 01:45:33;;;;;;;50.88;36.38;;;0.40;99.90;;;;;;4964811;28;20053;-66
2022/12/16 01:48:10;;;;;;;49.65;38.13;;;-0.30;99.90;;;;;;4963947;28;20050;-67
2022/12/16 01:50:36;;;;;;;51.50;37.55;;;0.40;99.90;;;;;;4964411;28;20602;-67
2022/12/16 01:53:03;;;;;;;55.63;37.47;;;-0.40;99.90;;;;;;4963486;28;20046;-66
2022/12/16 01:55:37;;;;;;;52.47;34.78;;;-0.60;99.90;;;;;;4979029;28;20042;-65
2022/12/16 01:58:21;;;;;;;53.17;35.40;;;-0.20;99.90;;;;;;4962977;28;20070;-65
2022/12/16 02:00:47;;;;;;;43.75;31.83;;;-0.50;99.90;;;;;;4963423;28;20042;-67
2022/12/16 02:03:14;;;;;;;53.42;36.00;;;0.40;99.90;;;;;;4964071;28;20382;-66
2022/12/16 02:05:41;;;;;;;53.45;38.03;;;0.50;99.90;;;;;;4969496;28;20715;-67
2022/12/16 02:08:13;;;;;;;55.38;38.63;;;-0.20;99.90;;;;;;4982659;28;20408;-67
2022/12/16 02:10:42;;;;;;;50.75;38.47;;;0.30;99.90;;;;;;4983572;28;20081;-66
2022/12/16 02:13:07;;;;;;;57.60;38.70;;;-0.30;99.90;;;;;;4982568;28;20822;-66
2022/12/16 02:15:41;;;;;;;53.50;36.83;;;-0.60;99.90;;;;;;4983349;28;20046;-67
2022/12/16 02:18:13;;;;;;;55.47;38.95;;;-0.30;99.90;;;;;;4983850;28;20057;-67
2022/12/16 02:21:06;;;;;;;56.10;38.97;;;-0.50;99.90;;;;;;4981686;28;20078;-67
2022/12/16 02:24:04;;;;;;;48.50;33.70;;;-0.60;99.90;;;;;;4982636;28;20282;-67
2022/12/16 02:26:54;;;;;;;50.20;36.85;;;-0.50;99.90;;;;;;4969581;28;20042;-67
2022/12/16 02:29:47;;;;;;;57.25;39.92;;;-0.70;99.90;;;;;;4963385;28;20066;-67
2022/12/16 02:32:22;;;;;;;50.65;35.92;;;-0.60;99.90;;;;;;4963137;28;20039;-67
2022/12/16 02:34:54;;;;;;;55.17;40.33;;;0.30;99.90;;;;;;4963130;28;20138;-66
2022/12/16 02:37:37;;;;;;;57.92;39.08;;;0.10;99.90;;;;;;4962248;28;20569;-67
2022/12/16 02:40:18;;;;;;;54.85;35.90;;;-0.50;99.90;;;;;;4963318;28;20047;-67
2022/12/16 02:43:09;;;;;;;53.05;36.15;;;0.50;99.90;;;;;;4960557;28;20046;-67
2022/12/16 02:45:35;;;;;;;58.08;39.40;;;-0.30;99.90;;;;;;4962887;28;20043;-66
2022/12/16 02:48:01;;;;;;;47.90;33.90;;;-0.50;99.90;;;;;;4962366;28;20049;-67
2022/12/16 02:50:33;;;;;;;54.47;37.90;;;-0.40;99.90;;;;;;4962431;28;20437;-66
2022/12/16 02:53:01;;;;;;;51.28;36.00;;;0.20;99.90;;;;;;4961742;28;20059;-67
2022/12/16 02:55:56;;;;;;;51.97;35.90;;;0.40;99.90;;;;;;4962566;28;20042;-67
2022/12/16 02:58:38;;;;;;;55.65;39.38;;;-0.50;99.90;;;;;;4969237;28;20051;-67
2022/12/16 03:01:27;;;;;;;46.10;32.45;;;-0.20;99.90;;;;;;4961511;28;20581;-65
2022/12/16 03:04:00;;;;;;;50.65;28.27;;;-0.30;99.90;;;;;;4965929;28;20050;-66
2022/12/16 03:06:29;;;;;;;52.10;35.60;;;-0.20;99.90;;;;;;4971141;28;20057;-67
2022/12/16 03:08:58;;;;;;;47.70;29.55;;;0.50;99.90;;;;;;4962869;28;20097;-67
2022/12/16 03:11:28;;;;;;;51.47;37.45;;;-0.60;99.90;;;;;;4961780;28;20159;-67
2022/12/16 03:13:55;;;;;;;53.90;37.58;;;0.60;99.90;;;;;;4962254;28;20112;-67
2022/12/16 03:16:27;;;;;;;64.10;42.35;;;0.00;99.90;;;;;;4962929;28;20046;-67
2022/12/16 03:18:58;;;;;;;60.92;43.72;;;-0.10;99.90;;;;;;4963112;28;20129;-68
2022/12/16 03:21:29;;;;;;;55.95;38.20;;;-0.50;99.90;;;;;;4961419;28;20059;-67
2022/12/16 03:24:01;;;;;;;45.85;29.58;;;-0.50;99.90;;;;;;4961988;28;20057;-66
2022/12/16 03:27:01;;;;;;;54.42;36.35;;;0.30;99.90;;;;;;4961464;28;20111;-67
2022/12/16 03:29:26;;;;;;;35.03;22.90;;;-0.50;99.90;;;;;;4961289;28;20053;-68
2022/12/16 03:31:59;;;;;;;33.45;21.30;;;-0.70;99.90;;;;;;4964758;28;20039;-66
2022/12/16 03:34:34;;;;;;;56.70;38.95;;;0.30;99.90;;;;;;4965913;28;20054;-67
2022/12/16 03:37:03;;;;;;;53.38;36.17;;;-0.40;99.90;;;;;;4966874;28;20545;-66
2022/12/16 03:39:32;;;;;;;51.28;33.92;;;-0.30;99.90;;;;;;4965751;28;20042;-67
2022/12/16 03:41:59;;;;;;;50.58;33.10;;;-0.40;99.90;;;;;;4965730;28;20050;-69
2022/12/16 03:44:25;;;;;;;41.92;27.67;;;-0.70;99.90;;;;;;4966539;28;20073;-68
2022/12/16 03:46:51;;;;;;;59.60;42.83;;;-0.70;99.90;;;;;;4966350;28;20051;-69
2022/12/16 03:49:17;;;;;;;53.15;35.97;;;-0.60;99.90;;;;;;4965671;28;20445;-68
2022/12/16 03:51:42;;;;;;;61.97;41.75;;;-0.10;99.90;;;;;;4964879;28;20043;-67
2022/12/16 03:54:08;;;;;;;53.72;36.03;;;0.50;99.90;;;;;;4966088;28;20681;-66
2022/12/16 03:56:34;;;;;;;38.75;23.23;;;-0.60;99.90;;;;;;4965654;28;20042;-66
2022/12/16 03:58:59;;;;;;;59.17;40.63;;;0.70;99.90;;;;;;4965238;28;20047;-67
2022/12/16 04:01:25;;;;;;;59.67;41.53;;;0.60;99.90;;;;;;4964813;28;20054;-66
2022/12/16 04:03:51;;;;;;;55.95;38.75;;;0.20;99.90;;;;;;4968682;28;20486;-67
2022/12/16 04:06:17;;;;;;;56.15;39.97;;;-0.60;99.90;;;;;;4974274;28;20116;-65
2022/12/16 04:08:46;;;;;;;52.58;33.72;;;-0.50;99.90;;;;;;4965974;28;20097;-68
2022/12/16 04:25:17;;;;;;;56.60;36.38;;;-0.20;99.90;;;;;;4966170;28;20662;-66
2022/12/16 04:27:45;;;;;;;56.55;39.17;;;-0.40;99.90;;;;;;4965236;28;20039;-67
2022/12/16 04:30:19;;;;;;;53.35;36.90;;;-0.40;99.90;;;;;;4965029;28;20059;-65
